Accueil
METAR-TAF:

METAR-TAF

Aéroports :

Lahr, Allemagne

Base aérienne 139 Lahr

latitude: 48-22-09N, longitude: 007-49-40E, altitude: 156 m

Observation

Le bulletin a été fait il y a 15 minutes, à 09:50 UTC
Vent 6 kt de nord, variant entre nord-ouest et est/nord-est
Température 10°C
Humidité 53%
Pression 1015 hPa
Visibilité 10 km ou plus
pas de nuages en-dessous de 1500 mètres et pas de cumulonimbus.

METAR: EDTL 280950Z 36006KT 320V070 CAVOK 10/01 Q1015

Heure: 12:05 (10:05 UTC)

Prévision

Le bulletin a été fait il y a 2 heures et 5 minutes, à 08:00 UTC
Prévision valable du 28 à 09 UTC au 28 à 18 UTC
Vent 5 kt de nord
Visibilité 10 km ou plus
Quelques nuages à une hauteur de 4500 ft
Evoluant progressivement
du 28 à 10 UTC au 28 à 13 UTC
Vent 6 kt de ouest

TAF: EDTL 280800Z 2809/2818 36005KT 9999 FEW045 BECMG 2810/2813 28006KT

Observations et prévisions météorologiques de plus de 4000 aéroports (messages METAR et TAF).

Les stations disponibles sont représentées par des disques jaunes et rouges sur la carte.

Passer la souris dessus pour voir le nom de la station.

Cliquer dessus pour voir les observations et prévisions météorologiques.

Pour changer de carte: cliquez sur les boutons verts avec une croix noire pour zoomer, sur le bouton vert avec un tiret pour effectuer un zoom arrière, ou sur les flèches vertes pour les cartes adjacentes.


METAR-TAF: